createdAt,value
2023-10-21T00:00:49.933Z,17.37
2023-10-21T00:01:51.732Z,17.38
2023-10-21T00:02:55.128Z,17.36
2023-10-21T00:03:57.051Z,17.35
2023-10-21T00:04:58.956Z,17.30
2023-10-21T00:06:00.811Z,17.29
2023-10-21T00:07:02.915Z,17.28
2023-10-21T00:08:04.802Z,17.28
2023-10-21T00:09:06.733Z,17.30
2023-10-21T00:10:08.739Z,17.28
2023-10-21T00:11:11.024Z,17.28
2023-10-21T00:12:13.583Z,17.25
2023-10-21T00:13:15.397Z,17.24
2023-10-21T00:14:18.946Z,17.23
2023-10-21T00:15:20.856Z,17.21
2023-10-21T00:16:22.752Z,17.21
2023-10-21T00:17:26.253Z,17.22
2023-10-21T00:18:28.294Z,17.20
2023-10-21T00:19:32.077Z,17.19
2023-10-21T00:20:33.874Z,17.20
2023-10-21T00:21:35.734Z,17.20
2023-10-21T00:22:37.563Z,17.19
2023-10-21T00:23:39.451Z,17.18
2023-10-21T00:24:42.105Z,17.17
2023-10-21T00:25:44.181Z,17.14
2023-10-21T00:26:49.520Z,17.14
2023-10-21T00:27:51.312Z,17.13
2023-10-21T00:28:53.011Z,17.11
2023-10-21T00:29:55.018Z,17.09
2023-10-21T00:30:56.815Z,17.05
2023-10-21T00:31:59.020Z,17.04
2023-10-21T00:33:05.761Z,17.02
2023-10-21T00:34:07.660Z,17.00
2023-10-21T00:35:09.514Z,16.99
2023-10-21T00:36:11.326Z,16.99
2023-10-21T00:37:13.168Z,16.95
2023-10-21T00:38:14.941Z,16.93
2023-10-21T00:39:18.143Z,16.92
2023-10-21T00:40:19.990Z,16.90
2023-10-21T00:41:21.801Z,16.89
2023-10-21T00:42:23.550Z,16.87
2023-10-21T00:43:52.074Z,16.84
2023-10-21T00:44:53.899Z,16.82
2023-10-21T00:45:55.795Z,16.81
2023-10-21T00:47:00.986Z,16.79
2023-10-21T00:48:03.015Z,16.77
2023-10-21T00:49:06.003Z,16.75
2023-10-21T00:50:08.295Z,16.73
2023-10-21T00:51:11.333Z,16.71
2023-10-21T00:52:15.100Z,16.71
2023-10-21T00:53:17.894Z,16.69
2023-10-21T00:54:20.580Z,16.68
2023-10-21T00:55:22.362Z,16.65
2023-10-21T00:56:25.140Z,16.60
2023-10-21T00:57:27.666Z,16.57
2023-10-21T00:58:32.545Z,16.54
2023-10-21T00:59:34.818Z,16.50
2023-10-21T01:00:38.605Z,16.48
2023-10-21T01:01:40.561Z,16.47
2023-10-21T01:02:43.841Z,16.45
2023-10-21T01:03:45.841Z,16.43
2023-10-21T01:04:47.893Z,16.44
2023-10-21T01:05:50.306Z,16.44
2023-10-21T01:06:52.215Z,16.41
2023-10-21T01:07:59.216Z,16.37
2023-10-21T01:09:00.999Z,16.36
2023-10-21T01:10:05.206Z,16.32
2023-10-21T01:11:06.981Z,16.32
2023-10-21T01:12:08.994Z,16.25
2023-10-21T01:13:10.826Z,16.24
2023-10-21T01:14:12.998Z,16.24
2023-10-21T01:15:14.904Z,16.23
2023-10-21T01:16:16.832Z,16.19
2023-10-21T01:17:18.913Z,16.13
2023-10-21T01:18:22.962Z,16.08
2023-10-21T01:19:27.357Z,15.98
2023-10-21T01:20:29.170Z,15.92
2023-10-21T01:21:30.850Z,15.85
2023-10-21T01:22:32.665Z,15.85
2023-10-21T01:23:38.055Z,15.86
2023-10-21T01:24:39.852Z,15.84
2023-10-21T01:25:41.593Z,15.80
2023-10-21T01:26:43.410Z,15.78
2023-10-21T01:27:45.622Z,15.67
2023-10-21T01:28:48.247Z,15.61
2023-10-21T01:29:50.436Z,15.62
2023-10-21T01:30:52.173Z,15.63
2023-10-21T01:31:53.954Z,15.65
2023-10-21T01:32:55.864Z,15.66
2023-10-21T01:33:59.342Z,15.65
2023-10-21T01:35:01.461Z,15.67
2023-10-21T01:36:03.425Z,15.64
2023-10-21T01:37:05.261Z,15.63
2023-10-21T01:38:07.171Z,15.64
2023-10-21T01:39:12.087Z,15.65
2023-10-21T01:40:14.475Z,15.64
2023-10-21T01:41:16.280Z,15.64
2023-10-21T01:42:18.056Z,15.63
2023-10-21T01:43:19.780Z,15.62
2023-10-21T01:44:21.720Z,15.62
2023-10-21T01:45:24.842Z,15.62
2023-10-21T01:46:28.207Z,15.62
2023-10-21T01:47:31.355Z,15.62
2023-10-21T01:48:33.424Z,15.60
2023-10-21T01:49:35.843Z,15.60
2023-10-21T01:50:38.177Z,15.60
2023-10-21T01:51:39.948Z,15.59
2023-10-21T01:52:41.759Z,15.59
2023-10-21T01:53:43.559Z,15.58
2023-10-21T01:54:46.104Z,15.57
2023-10-21T01:55:47.883Z,15.57
2023-10-21T01:56:50.265Z,15.57
2023-10-21T01:57:52.546Z,15.55
2023-10-21T01:58:54.249Z,15.53
2023-10-21T01:59:56.014Z,15.52
2023-10-21T02:00:57.966Z,15.51
2023-10-21T02:01:59.873Z,15.47
2023-10-21T02:03:02.129Z,15.46
2023-10-21T02:04:06.829Z,15.44
2023-10-21T02:05:10.452Z,15.45
2023-10-21T02:06:12.375Z,15.42
2023-10-21T02:07:14.160Z,15.43
2023-10-21T02:08:15.871Z,15.43
2023-10-21T02:09:18.584Z,15.42
2023-10-21T02:10:20.613Z,15.42
2023-10-21T02:11:23.601Z,15.39
2023-10-21T02:12:27.590Z,15.38
2023-10-21T02:13:31.068Z,15.39
2023-10-21T02:14:32.895Z,15.38
2023-10-21T02:15:37.891Z,15.38
2023-10-21T02:16:39.867Z,15.38
2023-10-21T02:17:42.351Z,15.36
2023-10-21T02:18:44.200Z,15.35
2023-10-21T02:19:46.108Z,15.33
2023-10-21T02:20:47.969Z,15.28
2023-10-21T02:21:49.794Z,15.25
2023-10-21T02:22:51.654Z,15.24
2023-10-21T02:23:53.490Z,15.20
2023-10-21T02:24:55.983Z,15.16
2023-10-21T02:26:01.332Z,15.13
2023-10-21T02:27:03.853Z,15.12
2023-10-21T02:28:06.747Z,15.12
2023-10-21T02:29:08.899Z,15.13
2023-10-21T02:30:16.247Z,15.12
2023-10-21T02:31:18.306Z,15.07
2023-10-21T02:32:20.197Z,15.05
2023-10-21T02:33:22.781Z,15.02
2023-10-21T02:34:24.524Z,15.02
2023-10-21T02:35:26.280Z,15.02
2023-10-21T02:36:28.166Z,14.98
2023-10-21T02:37:29.991Z,14.90
2023-10-21T02:38:31.923Z,14.87
2023-10-21T02:39:33.834Z,14.86
2023-10-21T02:40:36.113Z,14.85
2023-10-21T02:41:38.748Z,14.84
2023-10-21T02:42:40.568Z,14.83
2023-10-21T02:43:42.322Z,14.84
2023-10-21T02:44:44.423Z,14.83
2023-10-21T02:45:46.714Z,14.85
2023-10-21T02:46:49.664Z,14.84
2023-10-21T02:47:52.141Z,14.81
2023-10-21T02:48:54.141Z,14.81
2023-10-21T02:49:57.160Z,14.80
2023-10-21T02:50:58.971Z,14.80
2023-10-21T02:52:00.799Z,14.79
2023-10-21T02:53:02.669Z,14.78
2023-10-21T02:54:04.583Z,14.78
2023-10-21T02:55:07.489Z,14.77
2023-10-21T02:56:09.508Z,14.77
2023-10-21T02:57:12.348Z,14.75
2023-10-21T02:58:14.202Z,14.71
2023-10-21T02:59:16.472Z,14.67
2023-10-21T03:00:19.304Z,14.66
2023-10-21T03:01:22.206Z,14.67
2023-10-21T03:02:24.175Z,14.67
2023-10-21T03:03:27.923Z,14.70
2023-10-21T03:04:30.027Z,14.66
2023-10-21T03:05:31.760Z,14.63
2023-10-21T03:06:33.458Z,14.65
2023-10-21T03:07:35.267Z,14.65
2023-10-21T03:08:38.367Z,14.67
2023-10-21T03:09:40.570Z,14.68
2023-10-21T03:10:43.335Z,14.69
2023-10-21T03:11:45.443Z,14.65
2023-10-21T03:12:47.460Z,14.62
2023-10-21T03:13:49.260Z,14.56
2023-10-21T03:14:51.130Z,14.49
2023-10-21T03:15:52.964Z,14.46
2023-10-21T03:16:55.420Z,14.43
2023-10-21T03:17:57.320Z,14.38
2023-10-21T03:18:59.382Z,14.32
2023-10-21T03:20:01.147Z,14.31
2023-10-21T03:21:03.719Z,14.34
2023-10-21T03:22:05.519Z,14.32
2023-10-21T03:23:07.317Z,14.25
2023-10-21T03:24:10.363Z,14.20
2023-10-21T03:25:12.984Z,14.22
2023-10-21T03:26:14.861Z,14.24
2023-10-21T03:27:16.774Z,14.24
2023-10-21T03:28:19.078Z,14.19
2023-10-21T03:29:20.958Z,14.17
2023-10-21T03:30:22.739Z,14.18
2023-10-21T03:31:24.881Z,14.18
2023-10-21T03:32:26.641Z,14.14
2023-10-21T03:33:29.115Z,14.12
2023-10-21T03:34:33.032Z,14.13
2023-10-21T03:35:34.916Z,14.13
2023-10-21T03:36:36.760Z,14.15
2023-10-21T03:37:38.539Z,14.16
2023-10-21T03:38:41.553Z,14.17
2023-10-21T03:39:43.320Z,14.09
2023-10-21T03:40:45.154Z,13.96
2023-10-21T03:41:47.086Z,13.92
2023-10-21T03:42:48.959Z,13.94
2023-10-21T03:43:51.678Z,13.94
2023-10-21T03:44:53.765Z,13.94
2023-10-21T03:45:56.610Z,13.94
2023-10-21T03:46:58.423Z,13.95
2023-10-21T03:48:00.306Z,13.97
2023-10-21T03:49:03.475Z,13.95
2023-10-21T03:50:05.515Z,13.95
2023-10-21T03:51:08.396Z,13.95
2023-10-21T03:52:10.248Z,13.95
2023-10-21T03:53:12.970Z,13.96
2023-10-21T03:54:15.092Z,13.96
2023-10-21T03:55:18.365Z,13.93
2023-10-21T03:56:20.315Z,13.93
2023-10-21T03:57:23.285Z,13.93
2023-10-21T03:58:25.124Z,13.94
2023-10-21T03:59:28.013Z,13.91
2023-10-21T04:00:29.882Z,13.87
2023-10-21T04:01:32.036Z,13.85
2023-10-21T04:02:33.943Z,13.86
2023-10-21T04:03:39.078Z,13.88
2023-10-21T04:04:41.167Z,13.88
2023-10-21T04:05:43.762Z,13.87
2023-10-21T04:06:45.536Z,13.87
2023-10-21T04:07:47.360Z,13.85
2023-10-21T04:08:49.177Z,13.85
2023-10-21T04:09:50.984Z,13.67
2023-10-21T04:10:56.190Z,13.50
2023-10-21T04:11:58.394Z,13.49
2023-10-21T04:13:00.913Z,13.53
2023-10-21T04:14:06.402Z,13.57
2023-10-21T04:15:11.738Z,13.59
2023-10-21T04:16:14.448Z,13.56
2023-10-21T04:17:16.235Z,13.58
2023-10-21T04:18:19.337Z,13.59
2023-10-21T04:19:21.593Z,13.59
2023-10-21T04:20:23.445Z,13.59
2023-10-21T04:21:27.336Z,13.62
2023-10-21T04:22:29.088Z,13.63
2023-10-21T04:23:31.125Z,13.63
2023-10-21T04:24:32.861Z,13.64
2023-10-21T04:25:34.616Z,13.65
2023-10-21T04:26:36.502Z,13.65
2023-10-21T04:27:38.742Z,13.66
2023-10-21T04:28:41.450Z,13.66
2023-10-21T04:29:43.249Z,13.66
2023-10-21T04:30:46.966Z,13.66
2023-10-21T04:31:49.076Z,13.62
2023-10-21T04:32:53.879Z,13.58
2023-10-21T04:33:55.728Z,13.56
2023-10-21T04:34:58.073Z,13.56
2023-10-21T04:36:00.020Z,13.57
2023-10-21T04:37:02.486Z,13.56
2023-10-21T04:38:05.130Z,13.54
2023-10-21T04:39:08.705Z,13.53
2023-10-21T04:40:10.793Z,13.48
2023-10-21T04:41:12.591Z,13.47
2023-10-21T04:42:14.747Z,13.48
2023-10-21T04:43:16.608Z,13.48
2023-10-21T04:44:18.705Z,13.48
2023-10-21T04:45:20.685Z,13.46
2023-10-21T04:46:22.745Z,13.44
2023-10-21T04:47:24.521Z,13.40
2023-10-21T04:48:26.974Z,13.38
2023-10-21T04:49:28.903Z,13.37
2023-10-21T04:50:30.616Z,13.36
2023-10-21T04:51:32.920Z,13.36
2023-10-21T04:52:35.064Z,13.35
2023-10-21T04:53:36.893Z,13.33
2023-10-21T04:54:39.520Z,13.32
2023-10-21T04:55:41.311Z,13.31
2023-10-21T04:56:43.144Z,13.31
2023-10-21T04:57:44.881Z,13.31
2023-10-21T04:58:46.635Z,13.31
2023-10-21T04:59:49.556Z,13.28
2023-10-21T05:00:51.443Z,13.27
2023-10-21T05:01:53.252Z,13.27
2023-10-21T05:02:55.188Z,13.24
2023-10-21T05:03:57.506Z,13.24
2023-10-21T05:04:59.536Z,13.24
2023-10-21T05:06:01.433Z,13.24
2023-10-21T05:07:04.325Z,13.24
2023-10-21T05:08:06.137Z,13.23
2023-10-21T05:09:08.015Z,13.20
2023-10-21T05:10:09.959Z,13.18
2023-10-21T05:11:11.760Z,13.17
2023-10-21T05:12:13.590Z,13.19
2023-10-21T05:13:18.046Z,13.21
2023-10-21T05:14:19.802Z,13.21
2023-10-21T05:15:21.530Z,13.20
2023-10-21T05:16:23.493Z,13.20
2023-10-21T05:17:25.619Z,13.16
2023-10-21T05:18:27.696Z,13.14
2023-10-21T05:19:30.272Z,13.14
2023-10-21T05:20:32.615Z,13.12
2023-10-21T05:21:34.427Z,13.07
2023-10-21T05:22:36.179Z,13.00
2023-10-21T05:23:37.947Z,12.98
2023-10-21T05:24:39.739Z,12.97
2023-10-21T05:25:42.524Z,12.97
2023-10-21T05:26:44.627Z,12.96
2023-10-21T05:27:47.528Z,12.93
2023-10-21T05:28:50.031Z,12.90
2023-10-21T05:29:51.799Z,12.86
2023-10-21T05:30:53.586Z,12.83
2023-10-21T05:31:56.117Z,12.80
2023-10-21T05:32:57.939Z,12.78
2023-10-21T05:34:00.713Z,12.78
2023-10-21T05:35:03.561Z,12.80
2023-10-21T05:36:05.521Z,12.81
2023-10-21T05:37:07.342Z,12.79
2023-10-21T05:38:09.116Z,12.77
2023-10-21T05:39:13.364Z,12.78
2023-10-21T05:40:15.439Z,12.80
2023-10-21T05:41:17.168Z,12.81
2023-10-21T05:42:18.966Z,12.83
2023-10-21T05:43:20.741Z,12.83
2023-10-21T05:44:33.831Z,12.85
2023-10-21T05:45:44.514Z,12.84
2023-10-21T05:46:46.486Z,12.85
2023-10-21T05:47:48.391Z,12.85
2023-10-21T05:48:50.291Z,12.85
2023-10-21T05:49:52.029Z,12.86
2023-10-21T05:50:53.883Z,12.86
2023-10-21T05:51:55.792Z,12.87
2023-10-21T05:52:57.621Z,12.87
2023-10-21T05:53:59.520Z,12.87
2023-10-21T05:55:03.228Z,12.86
2023-10-21T05:56:05.948Z,12.85
2023-10-21T05:57:07.699Z,12.84
2023-10-21T05:58:10.044Z,12.84
2023-10-21T05:59:11.909Z,12.82
2023-10-21T06:00:14.071Z,12.80
2023-10-21T06:01:16.919Z,12.80
2023-10-21T06:02:18.792Z,12.80
2023-10-21T06:03:21.671Z,12.78
2023-10-21T06:04:23.699Z,12.77
2023-10-21T06:05:25.520Z,12.78
2023-10-21T06:06:27.347Z,12.78
2023-10-21T06:07:29.178Z,12.77
2023-10-21T06:08:31.191Z,12.76
2023-10-21T06:09:33.064Z,12.77
2023-10-21T06:10:36.171Z,12.77
2023-10-21T06:11:37.921Z,12.77
2023-10-21T06:12:42.612Z,12.75
2023-10-21T06:13:44.468Z,12.72
2023-10-21T06:14:46.303Z,12.68
2023-10-21T06:15:50.864Z,12.68
2023-10-21T06:16:52.672Z,12.70
2023-10-21T06:17:54.714Z,12.67
2023-10-21T06:18:56.565Z,12.67
2023-10-21T06:19:58.457Z,12.66
2023-10-21T06:21:00.691Z,12.67
2023-10-21T06:22:03.604Z,12.67
2023-10-21T06:23:05.738Z,12.66
2023-10-21T06:24:08.077Z,12.66
2023-10-21T06:25:11.752Z,12.66
2023-10-21T06:26:13.637Z,12.66
2023-10-21T06:27:15.569Z,12.63
2023-10-21T06:28:17.418Z,12.60
2023-10-21T06:29:19.209Z,12.58
2023-10-21T06:30:21.100Z,12.57
2023-10-21T06:31:22.923Z,12.57
2023-10-21T06:32:24.774Z,12.57
2023-10-21T06:33:26.669Z,12.56
2023-10-21T06:34:28.538Z,12.57
2023-10-21T06:35:30.710Z,12.57
2023-10-21T06:36:32.509Z,12.57
2023-10-21T06:37:35.062Z,12.57
2023-10-21T06:38:36.843Z,12.56
2023-10-21T06:39:38.956Z,12.56
2023-10-21T06:40:52.372Z,12.56
2023-10-21T06:42:02.506Z,12.56
2023-10-21T06:43:04.465Z,12.55
2023-10-21T06:44:06.459Z,12.55
2023-10-21T06:45:09.801Z,12.52
2023-10-21T06:46:12.823Z,12.51
2023-10-21T06:47:18.396Z,12.51
2023-10-21T06:48:20.849Z,12.51
2023-10-21T06:49:22.787Z,12.50
2023-10-21T06:50:24.580Z,12.50
2023-10-21T06:51:28.086Z,12.49
2023-10-21T06:52:29.866Z,12.43
2023-10-21T06:53:31.636Z,12.41
2023-10-21T06:54:33.558Z,12.39
2023-10-21T06:55:46.113Z,12.36
2023-10-21T06:56:48.086Z,12.35
2023-10-21T06:57:52.185Z,12.31
2023-10-21T06:58:54.154Z,12.29
2023-10-21T06:59:57.030Z,12.31
2023-10-21T07:00:58.941Z,12.33
2023-10-21T07:02:01.312Z,12.35
2023-10-21T07:03:03.281Z,12.34
2023-10-21T07:04:05.220Z,12.35
2023-10-21T07:05:11.101Z,12.35
2023-10-21T07:06:13.092Z,12.37
2023-10-21T07:07:14.994Z,12.38
2023-10-21T07:08:17.150Z,12.37
2023-10-21T07:09:19.050Z,12.37
2023-10-21T07:10:20.891Z,12.39
2023-10-21T07:11:23.690Z,12.40
2023-10-21T07:12:25.501Z,12.41
2023-10-21T07:13:27.555Z,12.42
2023-10-21T07:14:29.390Z,12.44
2023-10-21T07:15:33.997Z,12.43
2023-10-21T07:16:36.144Z,12.41
2023-10-21T07:17:39.514Z,12.43
2023-10-21T07:18:42.059Z,12.44
2023-10-21T07:19:44.301Z,12.43
2023-10-21T07:20:46.073Z,12.43
2023-10-21T07:21:47.834Z,12.42
2023-10-21T07:22:50.865Z,12.40
2023-10-21T07:23:53.253Z,12.39
2023-10-21T07:24:56.620Z,12.39
2023-10-21T07:25:58.435Z,12.39
2023-10-21T07:27:00.375Z,12.37
2023-10-21T07:28:02.122Z,12.38
2023-10-21T07:29:04.684Z,12.39
2023-10-21T07:30:06.765Z,12.39
2023-10-21T07:31:08.770Z,12.40
2023-10-21T07:32:10.603Z,12.42
2023-10-21T07:33:12.511Z,12.47
2023-10-21T07:34:15.729Z,12.54
2023-10-21T07:35:17.756Z,12.58
2023-10-21T07:36:20.755Z,12.60
2023-10-21T07:37:22.714Z,12.62
2023-10-21T07:38:24.448Z,12.63
2023-10-21T07:39:27.719Z,12.61
2023-10-21T07:40:31.261Z,12.60
2023-10-21T07:41:34.213Z,12.61
2023-10-21T07:42:36.241Z,12.61
2023-10-21T07:43:38.070Z,12.64
2023-10-21T07:44:41.284Z,12.69
2023-10-21T07:45:43.526Z,12.75
2023-10-21T07:46:45.337Z,12.81
2023-10-21T07:47:47.216Z,12.81
2023-10-21T07:48:49.113Z,12.86
2023-10-21T07:49:55.720Z,12.90
2023-10-21T07:50:59.492Z,12.96
2023-10-21T07:52:02.757Z,13.06
2023-10-21T07:53:04.701Z,13.17
2023-10-21T07:54:07.141Z,13.28
2023-10-21T07:55:09.206Z,13.34
2023-10-21T07:56:10.967Z,13.44
2023-10-21T07:57:12.832Z,13.50
2023-10-21T07:58:14.698Z,13.53
2023-10-21T07:59:16.802Z,13.58
2023-10-21T08:00:18.664Z,13.64
2023-10-21T08:01:20.556Z,13.70
2023-10-21T08:02:23.082Z,13.72
2023-10-21T08:03:24.906Z,13.74
2023-10-21T08:04:26.730Z,13.72
2023-10-21T08:05:30.001Z,13.74
2023-10-21T08:06:32.338Z,13.78
2023-10-21T08:07:34.374Z,13.79
2023-10-21T08:08:36.150Z,13.82
2023-10-21T08:09:39.600Z,13.85
2023-10-21T08:10:41.406Z,13.89
2023-10-21T08:11:44.487Z,13.94
2023-10-21T08:12:46.237Z,14.00
2023-10-21T08:13:48.363Z,14.04
2023-10-21T08:14:50.162Z,14.07
2023-10-21T08:15:51.873Z,14.10
2023-10-21T08:16:53.684Z,14.12
2023-10-21T08:17:55.569Z,14.16
2023-10-21T08:18:57.790Z,14.17
2023-10-21T08:19:59.589Z,14.14
2023-10-21T08:21:03.298Z,14.15
2023-10-21T08:22:07.600Z,14.16
2023-10-21T08:23:10.638Z,14.18
2023-10-21T08:24:12.875Z,14.21
2023-10-21T08:25:15.214Z,14.23
2023-10-21T08:26:17.026Z,14.25
2023-10-21T08:27:18.910Z,14.28
2023-10-21T08:28:21.454Z,14.29
2023-10-21T08:29:23.241Z,14.29
2023-10-21T08:30:25.004Z,14.35
2023-10-21T08:31:29.757Z,14.41
2023-10-21T08:32:31.992Z,14.48
2023-10-21T08:33:33.890Z,14.55
2023-10-21T08:34:38.688Z,14.65
2023-10-21T08:35:40.703Z,14.73
2023-10-21T08:36:43.067Z,14.77
2023-10-21T08:38:51.718Z,14.91
2023-10-21T08:39:53.692Z,14.93
2023-10-21T08:40:55.580Z,14.94
2023-10-21T08:41:57.310Z,14.94
2023-10-21T08:43:05.221Z,14.96
2023-10-21T08:44:08.111Z,14.99
2023-10-21T08:45:11.377Z,15.02
2023-10-21T08:46:14.581Z,15.00
2023-10-21T08:47:18.057Z,14.99
2023-10-21T08:48:20.034Z,15.02
2023-10-21T08:49:21.986Z,15.06
2023-10-21T08:50:25.511Z,15.09
2023-10-21T08:51:27.605Z,15.13
2023-10-21T08:52:31.945Z,15.14
2023-10-21T08:53:35.217Z,15.15
2023-10-21T08:54:38.450Z,15.15
2023-10-21T08:55:40.313Z,15.15
2023-10-21T08:56:42.230Z,15.19
2023-10-21T08:57:44.086Z,15.20
2023-10-21T08:58:47.484Z,15.22
2023-10-21T08:59:52.345Z,15.25
2023-10-21T09:00:54.195Z,15.31
2023-10-21T09:01:56.907Z,15.35
2023-10-21T09:02:59.921Z,15.40
2023-10-21T09:04:01.847Z,15.43
2023-10-21T09:05:13.176Z,15.46
2023-10-21T09:06:15.019Z,15.51
2023-10-21T09:07:16.766Z,15.55
2023-10-21T09:08:30.693Z,15.58
2023-10-21T09:09:32.621Z,15.62
2023-10-21T09:10:36.578Z,15.67
2023-10-21T09:11:40.466Z,15.71
2023-10-21T09:12:43.240Z,15.71
2023-10-21T09:13:45.500Z,15.72
2023-10-21T09:14:55.925Z,15.73
2023-10-21T09:15:57.932Z,15.78
2023-10-21T09:16:59.850Z,15.82
2023-10-21T09:18:09.685Z,15.89
2023-10-21T09:19:12.322Z,15.96
2023-10-21T09:20:15.305Z,15.99
2023-10-21T09:21:30.753Z,16.06
2023-10-21T09:22:32.601Z,16.20
2023-10-21T09:23:50.081Z,16.31
2023-10-21T09:24:51.931Z,16.42
2023-10-21T09:25:55.051Z,16.52
2023-10-21T09:26:57.923Z,16.63
2023-10-21T09:27:59.725Z,16.68
2023-10-21T09:29:13.142Z,16.75
2023-10-21T09:30:16.878Z,16.77
2023-10-21T09:31:19.061Z,16.84
2023-10-21T09:32:28.357Z,16.83
2023-10-21T09:33:31.617Z,16.79
2023-10-21T09:34:34.639Z,16.79
2023-10-21T09:35:39.146Z,16.84
2023-10-21T09:36:41.717Z,16.94
2023-10-21T09:37:43.705Z,17.07
2023-10-21T09:38:50.437Z,17.20
2023-10-21T09:39:52.239Z,17.22
2023-10-21T09:40:54.685Z,17.25
2023-10-21T09:41:56.541Z,17.27
2023-10-21T09:43:00.243Z,17.29
2023-10-21T09:44:04.481Z,17.30
2023-10-21T09:45:07.260Z,17.31
2023-10-21T09:46:11.758Z,17.39
2023-10-21T09:47:16.492Z,17.48
2023-10-21T09:48:20.228Z,17.51
2023-10-21T09:49:24.356Z,17.52
2023-10-21T09:50:26.805Z,17.52
2023-10-21T09:51:32.174Z,17.61
2023-10-21T09:52:38.808Z,17.67
2023-10-21T09:53:42.414Z,17.76
2023-10-21T09:54:45.544Z,17.79
2023-10-21T09:55:49.436Z,17.84
2023-10-21T09:56:52.404Z,17.93
2023-10-21T09:57:56.000Z,18.03
2023-10-21T09:58:58.364Z,18.09
2023-10-21T10:00:00.292Z,18.18
2023-10-21T10:01:07.163Z,18.29
2023-10-21T10:02:08.998Z,18.42
2023-10-21T10:03:11.672Z,18.51
2023-10-21T10:04:15.208Z,18.53
2023-10-21T10:05:21.567Z,18.51
2023-10-21T10:06:30.463Z,18.49
2023-10-21T10:07:41.954Z,18.49
2023-10-21T10:08:44.153Z,18.53
2023-10-21T10:09:46.968Z,18.57
2023-10-21T10:10:49.817Z,18.61
2023-10-21T10:11:51.739Z,18.59
2023-10-21T10:13:02.836Z,18.57
2023-10-21T10:14:04.844Z,18.54
2023-10-21T10:15:25.460Z,18.50
2023-10-21T10:16:27.366Z,18.50
2023-10-21T10:17:48.363Z,18.50
2023-10-21T10:18:57.589Z,18.70
2023-10-21T10:19:59.693Z,18.83
2023-10-21T10:21:03.273Z,18.92
2023-10-21T10:22:24.118Z,19.04
2023-10-21T10:23:26.739Z,19.23
2023-10-21T10:24:29.882Z,19.31
2023-10-21T10:25:32.903Z,19.39
2023-10-21T10:26:35.362Z,19.49
2023-10-21T10:27:38.312Z,19.59
2023-10-21T10:28:42.183Z,19.70
2023-10-21T10:29:44.479Z,19.82
2023-10-21T10:30:47.147Z,19.91
2023-10-21T10:31:49.868Z,20.01
2023-10-21T10:32:55.296Z,20.06
2023-10-21T10:33:57.182Z,20.09
2023-10-21T10:34:59.738Z,20.13
2023-10-21T10:36:02.434Z,20.19
2023-10-21T10:37:05.309Z,20.24
2023-10-21T10:38:27.571Z,20.27
2023-10-21T10:39:38.786Z,20.26
2023-10-21T10:40:40.797Z,20.22
2023-10-21T10:41:50.508Z,20.18
2023-10-21T10:42:52.435Z,20.14
2023-10-21T10:43:57.749Z,20.12
2023-10-21T10:44:59.631Z,20.10
2023-10-21T10:46:02.201Z,20.08
2023-10-21T10:47:06.312Z,20.07
2023-10-21T10:48:13.727Z,20.03
2023-10-21T10:49:17.824Z,20.04
2023-10-21T10:50:24.821Z,20.00
2023-10-21T10:51:29.250Z,19.95
2023-10-21T10:52:36.690Z,19.92
2023-10-21T10:53:38.565Z,19.90
2023-10-21T10:54:41.257Z,19.87
2023-10-21T10:55:48.455Z,19.87
2023-10-21T10:56:51.626Z,19.87
2023-10-21T10:57:54.410Z,19.88
2023-10-21T10:58:56.123Z,19.90
2023-10-21T10:59:58.169Z,19.93
2023-10-21T11:01:00.491Z,19.99
2023-10-21T11:02:05.603Z,20.09
2023-10-21T11:03:08.328Z,20.18
2023-10-21T11:04:10.377Z,20.29
2023-10-21T11:05:21.503Z,20.37
2023-10-21T11:06:24.805Z,20.48
2023-10-21T11:07:31.823Z,20.54
2023-10-21T11:08:33.682Z,20.55
2023-10-21T11:09:35.789Z,20.57
2023-10-21T11:10:39.068Z,20.60
2023-10-21T11:11:55.133Z,20.61
2023-10-21T11:13:06.713Z,20.64
2023-10-21T11:14:09.723Z,20.63
2023-10-21T11:15:13.834Z,20.62
2023-10-21T11:16:17.146Z,20.57
2023-10-21T11:17:19.082Z,20.55
2023-10-21T11:18:22.019Z,20.53
2023-10-21T11:19:27.158Z,20.51
2023-10-21T11:20:29.186Z,20.49
2023-10-21T11:21:41.166Z,20.49
2023-10-21T11:22:43.703Z,20.47
2023-10-21T11:23:45.796Z,20.49
2023-10-21T11:24:48.703Z,20.53
2023-10-21T11:25:58.014Z,20.53
2023-10-21T11:27:00.784Z,20.49
2023-10-21T11:28:05.097Z,20.43
2023-10-21T11:29:07.832Z,20.38
2023-10-21T11:30:10.420Z,20.35
2023-10-21T11:31:13.047Z,20.34
2023-10-21T11:32:15.588Z,20.31
2023-10-21T11:33:18.641Z,20.30
2023-10-21T11:34:21.215Z,20.28
2023-10-21T11:35:24.895Z,20.25
2023-10-21T11:36:27.178Z,20.25
2023-10-21T11:37:29.132Z,20.26
2023-10-21T11:38:32.140Z,20.30
2023-10-21T11:39:34.359Z,20.33
2023-10-21T11:40:36.886Z,20.36
2023-10-21T11:41:43.263Z,20.35
2023-10-21T11:42:59.272Z,20.40
2023-10-21T11:44:03.687Z,20.48
2023-10-21T11:45:08.874Z,20.52
2023-10-21T11:46:11.939Z,20.58
2023-10-21T11:47:13.849Z,20.62
2023-10-21T11:48:18.497Z,20.63
2023-10-21T11:49:24.744Z,20.65
2023-10-21T11:50:34.460Z,20.68
2023-10-21T11:51:36.365Z,20.68
2023-10-21T11:52:40.102Z,20.70
2023-10-21T11:53:42.615Z,20.73
2023-10-21T11:54:47.092Z,20.78
2023-10-21T11:55:51.853Z,20.83
2023-10-21T11:57:06.844Z,20.87
2023-10-21T11:58:17.631Z,20.87
2023-10-21T11:59:38.378Z,20.86
2023-10-21T12:01:01.012Z,20.83
2023-10-21T12:02:21.260Z,20.81
2023-10-21T12:03:52.921Z,20.81
2023-10-21T12:05:03.753Z,20.81
2023-10-21T12:06:09.207Z,20.88
2023-10-21T12:07:11.517Z,20.97
2023-10-21T12:08:13.879Z,20.97
2023-10-21T12:09:18.756Z,20.98
2023-10-21T12:10:26.562Z,21.01
2023-10-21T12:11:28.485Z,21.07
2023-10-21T12:12:36.294Z,21.10
2023-10-21T12:13:40.793Z,21.11
2023-10-21T12:14:45.115Z,21.15
2023-10-21T12:16:05.205Z,21.19
2023-10-21T12:17:25.215Z,21.16
2023-10-21T12:18:42.218Z,21.13
2023-10-21T12:19:53.438Z,21.08
2023-10-21T12:21:17.571Z,21.08
2023-10-21T12:22:28.302Z,21.13
2023-10-21T12:23:48.850Z,21.15
2023-10-21T12:25:08.956Z,21.14
2023-10-21T12:26:28.947Z,21.21
2023-10-21T12:27:42.645Z,21.33
2023-10-21T12:28:47.010Z,21.42
2023-10-21T12:29:51.313Z,21.41
2023-10-21T12:30:55.791Z,21.37
2023-10-21T12:32:32.825Z,21.32
2023-10-21T12:33:57.598Z,21.20
2023-10-21T12:35:18.554Z,21.14
2023-10-21T12:36:23.386Z,21.11
2023-10-21T12:37:41.771Z,21.11
2023-10-21T12:38:57.304Z,21.10
2023-10-21T12:39:59.778Z,21.07
2023-10-21T12:41:10.321Z,21.04
2023-10-21T12:42:30.929Z,21.04
2023-10-21T12:43:36.763Z,21.12
2023-10-21T12:44:45.878Z,21.12
2023-10-21T12:45:48.120Z,21.14
2023-10-21T12:46:56.937Z,21.15
2023-10-21T12:47:59.495Z,21.14
2023-10-21T12:49:22.742Z,21.13
2023-10-21T12:50:27.583Z,21.10
2023-10-21T12:51:30.829Z,21.11
2023-10-21T12:52:34.356Z,21.16
2023-10-21T12:53:36.402Z,21.20
2023-10-21T12:54:38.791Z,21.21
2023-10-21T12:55:40.883Z,21.19
2023-10-21T12:56:42.882Z,21.19
2023-10-21T12:57:45.086Z,21.17
2023-10-21T12:58:46.913Z,21.17
2023-10-21T12:59:50.258Z,21.17
2023-10-21T13:00:52.229Z,21.16
2023-10-21T13:01:54.394Z,21.14
2023-10-21T13:02:56.249Z,21.08
2023-10-21T13:03:58.780Z,21.06
2023-10-21T13:05:02.271Z,21.05
2023-10-21T13:06:07.009Z,21.08
2023-10-21T13:07:10.509Z,21.08
2023-10-21T13:08:12.369Z,21.09
2023-10-21T13:09:26.093Z,21.16
2023-10-21T13:10:28.976Z,21.20
2023-10-21T13:11:30.794Z,21.25
2023-10-21T13:12:33.093Z,21.35
2023-10-21T13:13:38.519Z,21.41
2023-10-21T13:14:40.317Z,21.43
2023-10-21T13:15:42.195Z,21.44
2023-10-21T13:16:44.166Z,21.40
2023-10-21T13:17:47.287Z,21.41
2023-10-21T13:18:50.141Z,21.37
2023-10-21T13:19:51.981Z,21.35
2023-10-21T13:20:53.793Z,21.38
2023-10-21T13:21:56.003Z,21.47
2023-10-21T13:22:58.451Z,21.46
2023-10-21T13:24:00.286Z,21.43
2023-10-21T13:25:24.721Z,21.37
2023-10-21T13:26:29.717Z,21.33
2023-10-21T13:27:31.545Z,21.31
2023-10-21T13:28:38.315Z,21.28
2023-10-21T13:29:40.304Z,21.21
2023-10-21T13:30:43.668Z,21.20
2023-10-21T13:31:45.706Z,21.18
2023-10-21T13:32:50.841Z,21.16
2023-10-21T13:33:52.640Z,21.16
2023-10-21T13:34:55.507Z,21.18
2023-10-21T13:35:57.619Z,21.22
2023-10-21T13:36:59.597Z,21.22
2023-10-21T13:38:01.800Z,21.23
2023-10-21T13:39:09.940Z,21.24
2023-10-21T13:40:16.108Z,21.26
2023-10-21T13:41:20.423Z,21.27